Flight Track Log - Related Links

Times and Time Zones

All times are in EDT time to prevent confusion due to time zone crossing. See the AAY861 flight status page for this flight to view local times or setup timezone preferences in your user account.

Time Position Orientation Groundspeed Altitude Reporting Facility
EDT Latitude Longitude Course Direction KTS MPH feet Rate Location/Type
Sat 10:53:11 AM 37.8958 -84.6217 161° South 275 316 6,000  Level Indianapolis Center
Sat 10:54:13 AM 37.8192 -84.5878 161° South 287 330 6,500 1,694 Climbing Indianapolis Center
Sat 10:55:15 AM 37.7403 -84.5647 167° South 287 330 9,500 2,390 Climbing Indianapolis Center
Sat 10:56:16 AM 37.6417 -84.5239 162° South 316 364 11,400 2,146 Climbing Indianapolis Center
Sat 10:57:18 AM 37.5350 -84.4886 165° South 377 434 13,900 2,419 Climbing Indianapolis Center
Sat 10:58:20 AM 37.4272 -84.4450 162° South 400 460 16,400 2,323 Climbing Indianapolis Center
Sat 10:59:22 AM 37.3150 -84.4019 163° South 415 478 18,700 2,146 Climbing Indianapolis Center
Sat 11:00:23 AM 37.1978 -84.3597 164° South 429 494 20,800 1,707 Climbing Indianapolis Center
Sat 11:01:25 AM 37.0772 -84.3158 164° South 444 511 22,200 1,645 Climbing Indianapolis Center
Sat 11:02:27 AM 36.9303 -84.2647 164° South 464 534 24,200 1,756 Climbing Indianapolis Center
Sat 11:03:28 AM 36.8006 -84.2169 164° South 477 549 25,800 1,610 Climbing Indianapolis Center
Sat 11:04:30 AM 36.6706 -84.1692 164° South 481 554 27,500 1,403 Climbing Indianapolis Center
Sat 11:05:32 AM 36.5403 -84.1217 164° South 484 557 28,700 1,463 Climbing Indianapolis Center
Sat 11:06:33 AM 36.3967 -84.0689 164° South 497 572 30,500 1,610 Climbing Indianapolis Center
Sat 11:07:35 AM 36.2644 -84.0197 163° South 498 573 32,000 1,210 Climbing Indianapolis Center
Sat 11:08:37 AM 36.1325 -83.9747 165° South 495 570 33,000 594 Climbing Indianapolis Center
Sat 11:09:16 AM 36.0478 -83.9464 165° South 495 570 33,000  Level Atlanta Center
Sat 11:10:16 AM 35.9183 -83.9056 166° South 495 570 33,000  Level Atlanta Center
Sat 11:11:16 AM 35.7869 -83.9183 185° South 477 549 33,000  Level Atlanta Center
Sat 11:12:16 AM 35.6639 -83.9519 193° South 469 540 33,000  Level Atlanta Center
Sat 11:13:16 AM 35.5367 -83.9903 194° South 469 540 33,000  Level Atlanta Center
Sat 11:14:16 AM 35.4136 -84.0183 191° South 469 540 33,000  Level Atlanta Center
Sat 11:15:17 AM 35.2906 -84.0464 191° South 464 534 33,000  Level Atlanta Center
Sat 11:16:17 AM 35.1633 -84.0717 189° South 464 534 33,000  Level Atlanta Center
Sat 11:17:16 AM 35.0403 -84.1047 192° South 464 534 33,000  Level Atlanta Center
Sat 11:18:17 AM 34.9192 -84.1375 193° South 457 526 33,000  Level Atlanta Center
Sat 11:19:16 AM 34.7958 -84.1653 190° South 452 520 33,000  Level Atlanta Center
Sat 11:20:16 AM 34.6625 -84.1928 190° South 452 520 33,000  Level Atlanta Center
Sat 11:21:16 AM 34.5331 -84.2203 190° South 450 518 33,000  Level Atlanta Center
Sat 11:22:16 AM 34.4244 -84.2478 192° South 457 526 33,000  Level Atlanta Center
Sat 11:23:16 AM 34.3033 -84.2803 192° South 452 520 33,000  Level Atlanta Center
Sat 11:24:16 AM 34.1758 -84.3100 191° South 457 526 33,000  Level Atlanta Center
Sat 11:25:16 AM 34.0506 -84.3372 190° South 457 526 33,000  Level Atlanta Center
Sat 11:26:16 AM 33.9233 -84.3667 191° South 467 537 33,000  Level Atlanta Center
Sat 11:27:16 AM 33.7978 -84.3989 192° South 467 537 33,000  Level Atlanta Center
Sat 11:28:16 AM 33.6747 -84.4281 191° South 467 537 33,000  Level Atlanta Center
Sat 11:29:16 AM 33.5328 -84.4375 183° South 472 543 33,000  Level Atlanta Center
Sat 11:30:17 AM 33.4033 -84.4319 178° South 462 532 33,000  Level Atlanta Center
Sat 11:31:16 AM 33.2864 -84.4264 178° South 462 532 33,000  Level Atlanta Center
Sat 11:32:16 AM 33.1569 -84.4283 181° South 462 532 33,000  Level Atlanta Center
Sat 11:33:16 AM 33.0275 -84.4303 181° South 462 532 33,000  Level Atlanta Center
Sat 11:34:16 AM 32.9003 -84.4272 179° South 456 525 33,000  Level Atlanta Center
Sat 11:35:16 AM 32.7708 -84.4169 176° South 461 531 33,000  Level Atlanta Center
Sat 11:36:17 AM 32.6394 -84.4139 179° South 461 531 33,000  Level Atlanta Center
Sat 11:37:16 AM 32.5100 -84.4156 181° South 461 531 33,000  Level Atlanta Center
Sat 11:38:16 AM 32.3806 -84.4128 179° South 461 531 33,000  Level Atlanta Center
Sat 11:39:16 AM 32.2511 -84.4097 179° South 461 531 33,000  Level Atlanta Center
Sat 11:40:17 AM 32.1239 -84.4067 179° South 461 531 33,000  Level Atlanta Center
Sat 11:40:58 AM 32.0197 -84.4044 179° South 461 531 33,000  Level Jacksonville Center
Sat 11:41:58 AM 31.8925 -84.4022 179° South 461 531 33,000  Level Jacksonville Center
Sat 11:42:58 AM 31.7631 -84.4003 179° South 461 531 33,000  Level Jacksonville Center
Sat 11:43:58 AM 31.6356 -84.3958 178° South 461 531 33,000  Level Jacksonville Center
Sat 11:44:58 AM 31.5083 -84.3936 179° South 461 531 33,000  Level Jacksonville Center
Sat 11:45:58 AM 31.3769 -84.3914 179° South 461 531 33,000  Level Jacksonville Center
Sat 11:46:58 AM 31.2494 -84.3894 179° South 461 531 33,000  Level Jacksonville Center
Sat 11:47:58 AM 31.1200 -84.3875 179° South 461 531 33,000  Level Jacksonville Center
Sat 11:48:58 AM 30.9928 -84.3831 178° South 456 525 33,000  Level Jacksonville Center
Sat 11:49:58 AM 30.8653 -84.3811 179° South 456 525 33,000  Level Jacksonville Center
Sat 11:50:58 AM 30.7381 -84.3789 179° South 456 525 33,000  Level Jacksonville Center
Sat 11:51:58 AM 30.6108 -84.3747 178° South 456 525 33,000  Level Jacksonville Center
Sat 11:52:58 AM 30.4964 -84.3439 167° South 456 525 33,000  Level Jacksonville Center
Sat 11:53:58 AM 30.3822 -84.2675 150° Southeast 461 531 33,000  Level Jacksonville Center
Sat 11:54:58 AM 30.2703 -84.1867 148° Southeast 467 537 33,000  Level Jacksonville Center
Sat 11:55:58 AM 30.1439 -84.1031 150° Southeast 467 537 33,000 -100 Level Jacksonville Center
Sat 11:56:58 AM 30.0275 -84.0297 151° Southeast 472 543 32,800 -800 Descending Jacksonville Center
Sat 11:57:58 AM 29.9217 -83.9639 152° Southeast 482 555 31,400 -1,500 Descending Jacksonville Center
Sat 11:58:58 AM 29.8014 -83.8858 151° Southeast 482 555 29,800 -1,500 Descending Jacksonville Center
Sat 11:59:58 AM 29.6850 -83.8081 150° Southeast 487 560 28,400 -1,100 Descending Jacksonville Center
Sat 12:00:58 PM 29.5706 -83.7331 150° Southeast 482 555 27,600 -750 Descending Jacksonville Center
Sat 12:01:58 PM 29.4561 -83.6631 152° Southeast 477 549 26,900 -850 Descending Jacksonville Center
Sat 12:02:58 PM 29.3439 -83.5906 151° Southeast 472 543 25,900 -1,050 Descending Jacksonville Center
Sat 12:03:58 PM 29.2317 -83.5161 150° Southeast 472 543 24,800 -1,350 Descending Jacksonville Center
Sat 12:04:58 PM 29.1192 -83.4464 152° Southeast 467 537 23,200 -1,650 Descending Jacksonville Center
Sat 12:05:58 PM 29.0108 -83.3769 151° Southeast 456 525 21,500 -1,600 Descending Jacksonville Center
Sat 12:06:58 PM 28.9047 -83.3078 150° Southeast 449 517 20,000 -1,450 Descending Jacksonville Center
Sat 12:07:58 PM 28.7986 -83.2408 151° Southeast 443 510 18,600 -1,350 Descending Jacksonville Center
Sat 12:08:58 PM 28.6964 -83.1767 151° Southeast 432 497 17,300 -1,438 Descending Jacksonville Center
Sat 12:09:59 PM 28.5833 -83.1000 149° Southeast 408 470 15,700 -1,488 Descending Tampa TRACON
Sat 12:10:59 PM 28.4833 -83.0500 156° South 400 460 14,300 -1,400 Descending Tampa TRACON
Sat 12:11:59 PM 28.4000 -82.9833 145° Southeast 388 447 12,900 -1,400 Descending Tampa TRACON
Sat 12:12:59 PM 28.3000 -82.9333 156° South 381 438 11,500 -1,300 Descending Tampa TRACON
Sat 12:13:59 PM 28.2167 -82.8667 145° Southeast 355 409 10,300 -1,200 Descending Tampa TRACON
Sat 12:14:54 PM 28.1333 -82.8500 170° South 301 346 9,200 -1,565 Descending Tampa TRACON
Sat 12:15:54 PM 28.0500 -82.8333 170° South 297 342 7,300 -1,895 Descending Tampa TRACON
Sat 12:16:48 PM 27.9833 -82.8167 168° South 280 322 5,600 -1,737 Descending Tampa TRACON
Sat 12:17:48 PM 27.9000 -82.8000 170° South 252 290 4,000 -952 Descending Tampa TRACON
Sat 12:18:54 PM 27.8500 -82.8000 180° South 207 238 3,600 -667 Descending Tampa TRACON
Sat 12:19:54 PM 27.7833 -82.7667 156° South 212 244 2,600 -800 Descending Tampa TRACON
Sat 12:20:54 PM 27.7833 -82.7167 90° East 177 204 2,000 -300 Descending Tampa TRACON
Sat 12:21:54 PM 27.8000 -82.6833 61° Northeast 151 174 2,000 -450 Level Tampa TRACON
Sat 12:22:54 PM 27.8500 -82.6833 360° North 136 157 1,100 -800 Descending Tampa TRACON
Sat 12:23:54 PM 27.8833 -82.6833 360° North 132 152 400 -700 Descending Tampa TRACON

Login

Don't have an account? Register now (free) for customized features, flight alerts, and more!